Axson, Georgia
Current Conditions -  °F | °C
As of 8:35 AM on Friday 19 Dec 2014 (Local Time) from KHOE Reporting Station
Broken Clouds Broken Clouds  
Wind Chill: 10°   Ceiling: 4900
Heat Index: 10°   Visibility: 10mi
Dew Point:   Wind: 0mph
Humidity: 71%   Direction: NA
Pressure: 30.15"   Gusts: NA
Location:  31.28°N, 82.73°W
Report Text: KHOE 191335Z AUTO 00000KT 10SM BKN049 10/05 A3015 RMK AO2
Loading
Personal Weather Stations






























Interactive Weather Map New forecast layout! Learn more

10-Day Weather Forecast

Advertisements
Track Severe Weather on mobile